createdAt,value
2024-02-06T00:02:24.465Z,16.30
2024-02-06T00:07:32.296Z,16.20
2024-02-06T00:12:37.140Z,16.20
2024-02-06T00:17:38.999Z,16.20
2024-02-06T00:22:40.966Z,16.20
2024-02-06T00:27:42.703Z,16.20
2024-02-06T00:32:45.229Z,16.20
2024-02-06T00:37:47.080Z,16.20
2024-02-06T00:42:49.086Z,16.20
2024-02-06T00:47:51.473Z,16.20
2024-02-06T00:52:53.446Z,16.10
2024-02-06T00:57:55.190Z,16.20
2024-02-06T01:02:56.916Z,16.10
2024-02-06T01:07:59.568Z,16.10
2024-02-06T01:13:01.482Z,16.10
2024-02-06T01:18:03.311Z,16.10
2024-02-06T01:23:05.221Z,16.10
2024-02-06T01:28:07.389Z,16.10
2024-02-06T01:33:09.240Z,16.10
2024-02-06T01:38:14.201Z,16.10
2024-02-06T01:43:18.460Z,16.10
2024-02-06T01:48:21.178Z,16.00
2024-02-06T01:53:23.628Z,16.00
2024-02-06T01:58:25.965Z,16.00
2024-02-06T02:03:28.504Z,16.00
2024-02-06T02:08:32.751Z,16.00
2024-02-06T02:13:34.701Z,16.00
2024-02-06T02:18:37.721Z,16.00
2024-02-06T02:23:40.647Z,16.00
2024-02-06T02:28:43.168Z,16.00
2024-02-06T02:33:45.081Z,16.00
2024-02-06T02:38:46.833Z,16.00
2024-02-06T02:43:48.528Z,15.90
2024-02-06T02:48:50.387Z,15.90
2024-02-06T02:53:52.207Z,15.90
2024-02-06T02:58:54.062Z,15.90
2024-02-06T03:03:56.146Z,15.90
2024-02-06T03:08:59.375Z,15.90
2024-02-06T03:14:02.999Z,15.90
2024-02-06T03:19:04.949Z,15.90
2024-02-06T03:24:06.891Z,15.90
2024-02-06T03:29:08.853Z,15.90
2024-02-06T03:34:10.995Z,15.80
2024-02-06T03:39:13.369Z,15.80
2024-02-06T03:44:16.043Z,15.80
2024-02-06T03:49:18.180Z,15.80
2024-02-06T03:54:20.140Z,15.80
2024-02-06T03:59:21.924Z,15.80
2024-02-06T04:04:23.983Z,15.80
2024-02-06T04:09:26.036Z,15.80
2024-02-06T04:14:27.881Z,15.80
2024-02-06T04:19:29.778Z,15.80
2024-02-06T04:24:31.586Z,15.80
2024-02-06T04:29:33.385Z,15.80
2024-02-06T04:34:35.357Z,15.80
2024-02-06T04:39:37.108Z,15.80
2024-02-06T04:44:39.005Z,15.80
2024-02-06T04:49:40.912Z,15.80
2024-02-06T04:54:42.810Z,15.80
2024-02-06T04:59:44.866Z,16.00
2024-02-06T05:04:46.651Z,16.20
2024-02-06T05:09:48.609Z,16.30
2024-02-06T05:14:50.326Z,16.40
2024-02-06T05:19:52.112Z,16.50
2024-02-06T05:24:53.978Z,16.60
2024-02-06T05:29:55.785Z,16.50
2024-02-06T05:34:58.893Z,16.50
2024-02-06T05:40:00.902Z,16.50
2024-02-06T05:45:02.644Z,16.40
2024-02-06T05:50:05.471Z,16.40
2024-02-06T05:55:08.222Z,16.50
2024-02-06T06:00:10.348Z,16.50
2024-02-06T06:05:12.874Z,16.60
2024-02-06T06:10:16.299Z,16.70
2024-02-06T06:15:18.227Z,16.80
2024-02-06T06:20:20.245Z,16.90
2024-02-06T06:25:22.258Z,16.90
2024-02-06T06:30:25.073Z,16.90
2024-02-06T06:35:26.832Z,16.90
2024-02-06T06:40:28.788Z,16.90
2024-02-06T06:45:30.758Z,17.00
2024-02-06T06:50:32.471Z,17.00
2024-02-06T06:55:34.298Z,16.90
2024-02-06T07:00:36.472Z,16.90
2024-02-06T07:05:38.288Z,16.90
2024-02-06T07:10:40.257Z,17.00
2024-02-06T07:15:42.044Z,16.90
2024-02-06T07:20:43.922Z,16.90
2024-02-06T07:25:46.288Z,16.90
2024-02-06T07:30:48.326Z,17.00
2024-02-06T07:35:50.099Z,17.10
2024-02-06T07:40:51.879Z,17.10
2024-02-06T07:45:53.628Z,17.10
2024-02-06T07:50:55.344Z,17.10
2024-02-06T07:55:57.072Z,17.10
2024-02-06T08:00:59.473Z,17.20
2024-02-06T08:06:01.911Z,17.20
2024-02-06T08:11:03.798Z,17.20
2024-02-06T08:16:05.530Z,17.10
2024-02-06T08:21:07.565Z,17.20
2024-02-06T08:26:09.829Z,17.30
2024-02-06T08:31:11.657Z,17.40
2024-02-06T08:36:14.837Z,17.40
2024-02-06T08:41:16.520Z,17.40
2024-02-06T08:46:18.265Z,17.40
2024-02-06T08:51:20.148Z,17.50
2024-02-06T08:56:22.262Z,17.50
2024-02-06T09:01:24.193Z,17.50
2024-02-06T09:06:26.762Z,17.40
2024-02-06T09:11:28.897Z,17.40
2024-02-06T09:16:30.791Z,17.40
2024-02-06T09:21:34.368Z,17.50
2024-02-06T09:26:36.185Z,17.40
2024-02-06T09:31:38.693Z,17.40
2024-02-06T09:36:40.601Z,17.40
2024-02-06T09:41:45.001Z,17.30
2024-02-06T09:46:51.128Z,17.20
2024-02-06T09:51:53.325Z,17.20
2024-02-06T09:56:56.386Z,17.10
2024-02-06T10:01:58.820Z,17.00
2024-02-06T10:07:01.459Z,17.00
2024-02-06T10:12:03.800Z,16.90
2024-02-06T10:17:07.622Z,16.80
2024-02-06T10:22:10.389Z,16.80
2024-02-06T10:27:12.241Z,16.80
2024-02-06T10:32:14.464Z,16.70
2024-02-06T10:37:16.429Z,16.70
2024-02-06T10:42:53.705Z,16.70
2024-02-06T10:47:43.137Z,16.60
2024-02-06T10:52:45.155Z,16.60
2024-02-06T10:57:47.068Z,16.60
2024-02-06T11:02:52.609Z,16.50
2024-02-06T11:08:02.976Z,16.50
2024-02-06T11:13:06.856Z,16.50
2024-02-06T11:18:13.846Z,16.40
2024-02-06T11:23:19.758Z,16.40
2024-02-06T11:28:21.816Z,16.40
2024-02-06T11:33:32.863Z,16.40
2024-02-06T11:38:36.923Z,16.40
2024-02-06T11:43:38.785Z,16.30
2024-02-06T11:48:43.912Z,16.30
2024-02-06T11:53:45.967Z,16.30
2024-02-06T11:58:47.759Z,16.30
2024-02-06T12:03:55.550Z,16.30
2024-02-06T12:09:15.962Z,16.30
2024-02-06T12:14:17.782Z,16.30
2024-02-06T12:19:20.729Z,16.30
2024-02-06T12:24:23.397Z,16.20
2024-02-06T12:29:25.196Z,16.20
2024-02-06T12:34:27.085Z,16.20
2024-02-06T12:39:31.454Z,16.20
2024-02-06T12:44:44.982Z,16.20
2024-02-06T12:49:51.728Z,16.20
2024-02-06T12:54:55.088Z,16.20
2024-02-06T12:59:56.925Z,16.20
2024-02-06T13:05:06.802Z,16.20
2024-02-06T13:10:13.381Z,16.10
2024-02-06T13:15:18.533Z,16.10
2024-02-06T13:20:20.435Z,16.10
2024-02-06T13:25:25.281Z,16.10
2024-02-06T13:30:29.623Z,16.10
2024-02-06T13:35:32.311Z,16.00
2024-02-06T13:40:34.376Z,16.10
2024-02-06T13:45:36.289Z,16.10
2024-02-06T13:50:38.075Z,16.00
2024-02-06T13:55:40.112Z,16.00
2024-02-06T14:00:43.984Z,16.00
2024-02-06T14:05:46.165Z,16.00
2024-02-06T14:10:49.550Z,16.00
2024-02-06T14:15:51.565Z,16.00
2024-02-06T14:20:53.436Z,16.00
2024-02-06T14:25:56.063Z,16.00
2024-02-06T14:30:58.109Z,16.00
2024-02-06T14:36:00.123Z,15.90
2024-02-06T14:41:02.433Z,16.00
2024-02-06T14:46:07.234Z,15.90
2024-02-06T14:51:12.062Z,15.90
2024-02-06T14:56:13.845Z,15.90
2024-02-06T15:01:15.983Z,15.90
2024-02-06T15:06:17.761Z,15.90
2024-02-06T15:11:19.491Z,15.90
2024-02-06T15:16:21.361Z,15.90
2024-02-06T15:21:23.446Z,16.00
2024-02-06T15:26:26.889Z,16.10
2024-02-06T15:31:29.003Z,16.10
2024-02-06T15:36:30.805Z,16.10
2024-02-06T15:41:32.652Z,16.20
2024-02-06T15:46:34.446Z,16.20
2024-02-06T15:51:36.327Z,16.20
2024-02-06T15:56:41.000Z,16.20
2024-02-06T16:01:47.312Z,16.10
2024-02-06T16:06:49.393Z,16.10
2024-02-06T16:11:52.488Z,16.10
2024-02-06T16:16:54.254Z,16.10
2024-02-06T16:21:56.728Z,16.10
2024-02-06T16:26:59.954Z,16.10
2024-02-06T16:32:02.069Z,16.10
2024-02-06T16:37:04.029Z,16.00
2024-02-06T16:42:06.912Z,16.00
2024-02-06T16:47:08.803Z,16.00
2024-02-06T16:52:10.515Z,15.90
2024-02-06T16:57:12.392Z,15.90
2024-02-06T17:02:15.629Z,15.90
2024-02-06T17:07:17.543Z,15.90
2024-02-06T17:12:19.490Z,15.90
2024-02-06T17:17:21.831Z,15.90
2024-02-06T17:22:23.715Z,15.90
2024-02-06T17:27:25.645Z,16.00
2024-02-06T17:32:27.244Z,16.00
2024-02-06T17:37:29.029Z,16.00
2024-02-06T17:42:31.046Z,16.10
2024-02-06T17:47:33.129Z,16.00
2024-02-06T17:52:35.093Z,16.00
2024-02-06T17:57:37.385Z,16.00
2024-02-06T18:02:47.461Z,16.00
2024-02-06T18:07:56.137Z,16.00
2024-02-06T18:12:58.193Z,16.00
2024-02-06T18:18:00.772Z,15.90
2024-02-06T18:23:02.688Z,16.00
2024-02-06T18:28:04.649Z,15.90
2024-02-06T18:33:07.318Z,15.90
2024-02-06T18:38:09.169Z,15.90
2024-02-06T18:43:11.102Z,15.90
2024-02-06T18:48:12.975Z,15.80
2024-02-06T18:53:14.686Z,15.90
2024-02-06T18:58:16.618Z,15.80
2024-02-06T19:03:19.098Z,15.90
2024-02-06T19:08:21.142Z,16.00
2024-02-06T19:13:22.972Z,16.00
2024-02-06T19:18:24.981Z,16.00
2024-02-06T19:23:27.086Z,16.00
2024-02-06T19:28:29.080Z,16.00
2024-02-06T19:33:30.908Z,16.00
2024-02-06T19:38:32.855Z,16.00
2024-02-06T19:43:34.693Z,16.00
2024-02-06T19:48:36.635Z,16.00
2024-02-06T19:53:39.563Z,16.00
2024-02-06T19:58:43.320Z,16.00
2024-02-06T20:03:45.433Z,16.00
2024-02-06T20:08:49.241Z,15.90
2024-02-06T20:13:51.291Z,16.00
2024-02-06T20:18:53.007Z,15.90
2024-02-06T20:23:54.846Z,15.90
2024-02-06T20:28:56.744Z,15.90
2024-02-06T20:33:58.860Z,15.80
2024-02-06T20:39:01.322Z,15.90
2024-02-06T20:44:03.259Z,15.90
2024-02-06T20:49:06.214Z,16.00
2024-02-06T20:54:08.037Z,16.00
2024-02-06T20:59:09.708Z,16.00
2024-02-06T21:04:11.696Z,16.00
2024-02-06T21:09:14.634Z,16.00
2024-02-06T21:14:16.541Z,15.90
2024-02-06T21:19:19.306Z,15.90
2024-02-06T21:24:21.898Z,15.90
2024-02-06T21:29:23.698Z,15.90
2024-02-06T21:34:25.813Z,15.90
2024-02-06T21:39:30.424Z,15.90
2024-02-06T21:44:32.365Z,15.80
2024-02-06T21:49:34.157Z,15.80
2024-02-06T21:54:35.955Z,15.80
2024-02-06T21:59:37.716Z,15.80
2024-02-06T22:04:39.475Z,15.70
2024-02-06T22:09:41.239Z,15.80
2024-02-06T22:14:42.938Z,15.80
2024-02-06T22:19:44.981Z,15.80
2024-02-06T22:24:47.074Z,15.80
2024-02-06T22:29:48.695Z,15.80
2024-02-06T22:34:50.413Z,15.80
2024-02-06T22:39:52.256Z,15.80
2024-02-06T22:44:54.068Z,15.80
2024-02-06T22:49:55.970Z,15.80
2024-02-06T22:54:57.756Z,15.90
2024-02-06T22:59:59.684Z,15.90
2024-02-06T23:05:01.701Z,15.90
2024-02-06T23:10:05.921Z,15.90
2024-02-06T23:15:07.958Z,15.90
2024-02-06T23:20:10.077Z,15.90
2024-02-06T23:25:12.041Z,15.90
2024-02-06T23:30:14.137Z,15.90
2024-02-06T23:35:16.501Z,15.90
2024-02-06T23:40:18.727Z,15.90
2024-02-06T23:45:20.813Z,15.90
2024-02-06T23:50:22.661Z,15.80
2024-02-06T23:55:25.156Z,15.80
